首页
METAR-TAF:

METAR-TAF

机场 :

米蘇拉, 蒙大拿州, 美国

纬度: 46-55-15N, 经度: 114-05-33W, 海拔: 975米

当前天气观测

该预报发布于1小时和3分钟前的00:53 UTC
风速13节,风向
温度 18°C
湿度 45%
气压 1007 hPa
能見度: 16.1公里
多云层高于11000英尺

METAR: KMSO 130053Z 01013KT 10SM BKN110 18/06 A2973 RMK AO2 SLP062 T01780056

时间: 19:56 (01:56 UTC)

预报

该预报发布于2小时和36分钟前的23:20 UTC
预报有效从13日的 00点(UTC)到 13日的 24点(UTC)
风速3节,风向
能見度: 10公里
散云层高于10000英尺
从 13日的 0600点(UTC)
风速5节,风向南转西南
能見度: 10公里
多云层高于6000英尺
阴天层高于8000英尺
附近有阵雨
从 13日的 0900点(UTC)
风速2节,风向多变
能見度: 10公里
多云层高于10000英尺
从 13日的 1400点(UTC)
风速3节,风向多变
能見度: 10公里
少量云层高于25000英尺

TAF: KMSO 122320Z 1300/1324 18003KT P6SM SCT100 FM130600 21005KT P6SM VCSH BKN060 OVC080 FM130900 VRB02KT P6SM BKN100 FM131400 VRB03KT P6SM FEW250

超过4000个机场的气象观测和天气预报(METAR&TAF报告)。

可查询的气象台以黄色和红色小点在地图上表示。

将鼠标移到小点上方,可查看气象台名称。

然后点击查看天气观测和预报。

如需切换地图:点击带黑十字的绿色按钮放大地图;点击带横线的绿色按钮缩小地图;或者点击绿色箭头查看邻近地区的地图。


METAR-TAF: